sensor_id;sensor_type;location;lat;lon;timestamp;P1;durP1;ratioP1;P2;durP2;ratioP2
22622;SDS011;11478;51.094;7.030;2023-04-30T00:02:26;24.65;;;19.55;;
22622;SDS011;11478;51.094;7.030;2023-04-30T00:04:52;27.17;;;20.85;;
22622;SDS011;11478;51.094;7.030;2023-04-30T00:07:19;26.10;;;20.40;;
22622;SDS011;11478;51.094;7.030;2023-04-30T00:09:45;27.40;;;21.38;;
22622;SDS011;11478;51.094;7.030;2023-04-30T00:12:18;24.50;;;19.75;;
22622;SDS011;11478;51.094;7.030;2023-04-30T00:14:44;24.13;;;19.85;;
22622;SDS011;11478;51.094;7.030;2023-04-30T00:17:17;25.42;;;20.20;;
22622;SDS011;11478;51.094;7.030;2023-04-30T00:19:43;26.48;;;19.58;;
22622;SDS011;11478;51.094;7.030;2023-04-30T00:22:14;26.10;;;19.92;;
22622;SDS011;11478;51.094;7.030;2023-04-30T00:24:40;25.10;;;19.20;;
22622;SDS011;11478;51.094;7.030;2023-04-30T00:27:07;26.42;;;19.70;;
22622;SDS011;11478;51.094;7.030;2023-04-30T00:29:32;29.80;;;18.48;;
22622;SDS011;11478;51.094;7.030;2023-04-30T00:32:04;24.48;;;18.98;;
22622;SDS011;11478;51.094;7.030;2023-04-30T00:34:30;26.85;;;18.83;;
22622;SDS011;11478;51.094;7.030;2023-04-30T00:37:01;22.58;;;18.25;;
22622;SDS011;11478;51.094;7.030;2023-04-30T00:39:27;26.88;;;18.80;;
22622;SDS011;11478;51.094;7.030;2023-04-30T00:41:54;22.20;;;18.38;;
22622;SDS011;11478;51.094;7.030;2023-04-30T00:44:20;23.05;;;18.23;;
22622;SDS011;11478;51.094;7.030;2023-04-30T00:46:48;27.00;;;20.35;;
22622;SDS011;11478;51.094;7.030;2023-04-30T00:49:13;28.27;;;20.55;;
22622;SDS011;11478;51.094;7.030;2023-04-30T00:51:40;23.70;;;19.38;;
22622;SDS011;11478;51.094;7.030;2023-04-30T00:54:07;23.58;;;17.73;;
22622;SDS011;11478;51.094;7.030;2023-04-30T00:56:35;27.15;;;19.90;;
22622;SDS011;11478;51.094;7.030;2023-04-30T00:59:01;26.52;;;17.90;;
22622;SDS011;11478;51.094;7.030;2023-04-30T01:01:28;26.48;;;18.33;;
22622;SDS011;11478;51.094;7.030;2023-04-30T01:03:54;22.38;;;18.23;;
22622;SDS011;11478;51.094;7.030;2023-04-30T01:06:24;21.83;;;17.90;;
22622;SDS011;11478;51.094;7.030;2023-04-30T01:08:51;22.77;;;17.48;;
22622;SDS011;11478;51.094;7.030;2023-04-30T01:14:15;25.58;;;19.10;;
22622;SDS011;11478;51.094;7.030;2023-04-30T01:17:02;26.50;;;18.83;;
22622;SDS011;11478;51.094;7.030;2023-04-30T01:19:41;20.73;;;16.60;;
22622;SDS011;11478;51.094;7.030;2023-04-30T01:22:13;21.27;;;17.42;;
22622;SDS011;11478;51.094;7.030;2023-04-30T01:30:35;22.52;;;16.70;;
22622;SDS011;11478;51.094;7.030;2023-04-30T01:33:02;22.05;;;15.82;;
22622;SDS011;11478;51.094;7.030;2023-04-30T01:55:00;23.50;;;16.90;;
22622;SDS011;11478;51.094;7.030;2023-04-30T01:57:50;25.65;;;16.17;;
22622;SDS011;11478;51.094;7.030;2023-04-30T02:01:00;24.42;;;17.25;;
22622;SDS011;11478;51.094;7.030;2023-04-30T02:03:20;23.23;;;15.23;;
22622;SDS011;11478;51.094;7.030;2023-04-30T02:05:51;23.20;;;16.55;;
22622;SDS011;11478;51.094;7.030;2023-04-30T02:08:19;25.42;;;16.58;;
22622;SDS011;11478;51.094;7.030;2023-04-30T02:10:45;22.25;;;17.20;;
22622;SDS011;11478;51.094;7.030;2023-04-30T02:13:11;23.17;;;15.57;;
22622;SDS011;11478;51.094;7.030;2023-04-30T02:15:40;26.25;;;16.27;;
22622;SDS011;11478;51.094;7.030;2023-04-30T02:18:06;21.27;;;15.73;;
22622;SDS011;11478;51.094;7.030;2023-04-30T02:20:33;22.17;;;16.23;;
22622;SDS011;11478;51.094;7.030;2023-04-30T02:23:01;24.67;;;16.92;;
22622;SDS011;11478;51.094;7.030;2023-04-30T02:25:26;26.15;;;17.88;;
22622;SDS011;11478;51.094;7.030;2023-04-30T02:27:56;23.55;;;15.75;;
22622;SDS011;11478;51.094;7.030;2023-04-30T02:30:22;24.20;;;16.13;;
22622;SDS011;11478;51.094;7.030;2023-04-30T02:32:57;24.65;;;16.33;;
22622;SDS011;11478;51.094;7.030;2023-04-30T02:35:24;23.33;;;15.45;;
22622;SDS011;11478;51.094;7.030;2023-04-30T02:37:51;21.00;;;15.00;;
22622;SDS011;11478;51.094;7.030;2023-04-30T02:40:17;21.10;;;15.40;;
22622;SDS011;11478;51.094;7.030;2023-04-30T02:42:43;21.75;;;16.13;;
22622;SDS011;11478;51.094;7.030;2023-04-30T02:45:09;20.58;;;15.57;;
22622;SDS011;11478;51.094;7.030;2023-04-30T02:47:41;21.38;;;15.15;;
22622;SDS011;11478;51.094;7.030;2023-04-30T02:50:07;20.33;;;14.57;;
22622;SDS011;11478;51.094;7.030;2023-04-30T02:52:35;24.10;;;15.82;;
22622;SDS011;11478;51.094;7.030;2023-04-30T02:55:01;21.33;;;14.63;;
22622;SDS011;11478;51.094;7.030;2023-04-30T02:57:35;23.27;;;14.85;;
22622;SDS011;11478;51.094;7.030;2023-04-30T03:00:01;22.60;;;15.27;;
22622;SDS011;11478;51.094;7.030;2023-04-30T03:02:28;24.15;;;15.52;;
22622;SDS011;11478;51.094;7.030;2023-04-30T03:04:55;21.25;;;15.15;;
22622;SDS011;11478;51.094;7.030;2023-04-30T03:07:27;20.83;;;15.00;;
22622;SDS011;11478;51.094;7.030;2023-04-30T03:09:52;22.55;;;15.60;;
22622;SDS011;11478;51.094;7.030;2023-04-30T03:12:18;24.15;;;15.32;;
22622;SDS011;11478;51.094;7.030;2023-04-30T03:14:44;24.15;;;15.65;;
22622;SDS011;11478;51.094;7.030;2023-04-30T03:17:23;21.50;;;15.55;;
22622;SDS011;11478;51.094;7.030;2023-04-30T03:19:49;23.88;;;15.73;;
22622;SDS011;11478;51.094;7.030;2023-04-30T03:22:20;22.00;;;16.40;;
22622;SDS011;11478;51.094;7.030;2023-04-30T03:24:48;26.98;;;15.55;;
22622;SDS011;11478;51.094;7.030;2023-04-30T03:29:49;30.55;;;17.27;;
22622;SDS011;11478;51.094;7.030;2023-04-30T03:32:14;23.27;;;16.27;;
22622;SDS011;11478;51.094;7.030;2023-04-30T03:34:40;24.88;;;16.45;;
22622;SDS011;11478;51.094;7.030;2023-04-30T03:39:43;27.45;;;16.77;;
22622;SDS011;11478;51.094;7.030;2023-04-30T03:42:22;28.27;;;17.55;;
22622;SDS011;11478;51.094;7.030;2023-04-30T03:44:48;22.83;;;16.73;;
22622;SDS011;11478;51.094;7.030;2023-04-30T03:47:14;24.25;;;16.13;;
22622;SDS011;11478;51.094;7.030;2023-04-30T03:49:40;24.83;;;16.58;;
22622;SDS011;11478;51.094;7.030;2023-04-30T03:52:06;24.80;;;17.17;;
22622;SDS011;11478;51.094;7.030;2023-04-30T03:54:32;26.17;;;17.80;;
22622;SDS011;11478;51.094;7.030;2023-04-30T03:56:58;26.27;;;17.83;;
22622;SDS011;11478;51.094;7.030;2023-04-30T03:59:29;24.17;;;17.10;;
22622;SDS011;11478;51.094;7.030;2023-04-30T04:04:27;27.77;;;17.15;;
22622;SDS011;11478;51.094;7.030;2023-04-30T04:09:24;22.40;;;15.93;;
22622;SDS011;11478;51.094;7.030;2023-04-30T04:14:22;24.23;;;17.08;;
22622;SDS011;11478;51.094;7.030;2023-04-30T04:16:48;26.83;;;17.55;;
22622;SDS011;11478;51.094;7.030;2023-04-30T04:19:14;28.70;;;18.38;;
22622;SDS011;11478;51.094;7.030;2023-04-30T04:21:53;29.08;;;19.13;;
22622;SDS011;11478;51.094;7.030;2023-04-30T04:24:27;30.40;;;18.98;;
22622;SDS011;11478;51.094;7.030;2023-04-30T04:26:53;25.63;;;17.27;;
22622;SDS011;11478;51.094;7.030;2023-04-30T04:31:49;25.75;;;16.52;;
22622;SDS011;11478;51.094;7.030;2023-04-30T04:34:15;27.00;;;17.35;;
22622;SDS011;11478;51.094;7.030;2023-04-30T04:36:41;25.17;;;16.85;;
22622;SDS011;11478;51.094;7.030;2023-04-30T04:39:07;26.05;;;16.67;;
22622;SDS011;11478;51.094;7.030;2023-04-30T04:41:33;24.95;;;17.45;;
22622;SDS011;11478;51.094;7.030;2023-04-30T04:44:05;27.33;;;18.52;;
22622;SDS011;11478;51.094;7.030;2023-04-30T04:46:32;25.55;;;17.55;;
22622;SDS011;11478;51.094;7.030;2023-04-30T04:48:59;26.38;;;17.80;;
22622;SDS011;11478;51.094;7.030;2023-04-30T04:51:25;28.77;;;17.83;;
22622;SDS011;11478;51.094;7.030;2023-04-30T04:53:52;28.88;;;18.92;;
22622;SDS011;11478;51.094;7.030;2023-04-30T04:56:21;28.75;;;18.52;;
22622;SDS011;11478;51.094;7.030;2023-04-30T04:58:55;28.40;;;18.10;;
22622;SDS011;11478;51.094;7.030;2023-04-30T05:01:21;28.88;;;18.13;;
22622;SDS011;11478;51.094;7.030;2023-04-30T05:03:56;27.10;;;17.92;;
22622;SDS011;11478;51.094;7.030;2023-04-30T05:06:22;27.65;;;18.23;;
22622;SDS011;11478;51.094;7.030;2023-04-30T05:11:20;26.55;;;17.60;;
22622;SDS011;11478;51.094;7.030;2023-04-30T05:13:59;31.33;;;18.48;;
22622;SDS011;11478;51.094;7.030;2023-04-30T05:16:25;34.13;;;18.50;;
22622;SDS011;11478;51.094;7.030;2023-04-30T05:18:51;26.85;;;17.38;;
22622;SDS011;11478;51.094;7.030;2023-04-30T05:21:17;27.02;;;18.08;;
22622;SDS011;11478;51.094;7.030;2023-04-30T05:23:44;30.83;;;18.98;;
22622;SDS011;11478;51.094;7.030;2023-04-30T05:26:10;28.33;;;17.77;;
22622;SDS011;11478;51.094;7.030;2023-04-30T05:28:36;29.45;;;18.58;;
22622;SDS011;11478;51.094;7.030;2023-04-30T05:31:02;30.63;;;18.52;;
22622;SDS011;11478;51.094;7.030;2023-04-30T05:33:28;24.88;;;16.60;;
22622;SDS011;11478;51.094;7.030;2023-04-30T05:35:54;26.42;;;17.35;;
22622;SDS011;11478;51.094;7.030;2023-04-30T05:38:20;32.33;;;17.67;;
22622;SDS011;11478;51.094;7.030;2023-04-30T05:40:46;26.27;;;17.10;;
22622;SDS011;11478;51.094;7.030;2023-04-30T05:43:12;24.88;;;16.90;;
22622;SDS011;11478;51.094;7.030;2023-04-30T05:45:38;25.65;;;16.63;;
22622;SDS011;11478;51.094;7.030;2023-04-30T05:50:33;24.00;;;16.38;;
22622;SDS011;11478;51.094;7.030;2023-04-30T05:53:02;24.45;;;15.23;;
22622;SDS011;11478;51.094;7.030;2023-04-30T05:55:28;25.38;;;16.55;;
22622;SDS011;11478;51.094;7.030;2023-04-30T06:00:24;21.42;;;14.75;;
22622;SDS011;11478;51.094;7.030;2023-04-30T06:02:50;21.45;;;14.55;;
22622;SDS011;11478;51.094;7.030;2023-04-30T06:05:17;17.73;;;13.02;;
22622;SDS011;11478;51.094;7.030;2023-04-30T06:07:57;16.55;;;12.73;;
22622;SDS011;11478;51.094;7.030;2023-04-30T06:10:23;19.67;;;13.30;;
22622;SDS011;11478;51.094;7.030;2023-04-30T06:12:49;18.95;;;12.38;;
22622;SDS011;11478;51.094;7.030;2023-04-30T06:15:15;17.00;;;12.10;;
22622;SDS011;11478;51.094;7.030;2023-04-30T06:17:54;16.92;;;12.55;;
22622;SDS011;11478;51.094;7.030;2023-04-30T06:20:20;15.25;;;11.05;;
22622;SDS011;11478;51.094;7.030;2023-04-30T06:22:49;15.90;;;11.77;;
22622;SDS011;11478;51.094;7.030;2023-04-30T06:25:16;17.73;;;12.95;;
22622;SDS011;11478;51.094;7.030;2023-04-30T06:27:42;19.25;;;13.90;;
22622;SDS011;11478;51.094;7.030;2023-04-30T06:30:20;23.92;;;15.55;;
22622;SDS011;11478;51.094;7.030;2023-04-30T06:32:46;27.30;;;18.23;;
22622;SDS011;11478;51.094;7.030;2023-04-30T06:35:14;26.88;;;19.63;;
22622;SDS011;11478;51.094;7.030;2023-04-30T06:37:40;23.38;;;16.58;;
22622;SDS011;11478;51.094;7.030;2023-04-30T06:40:08;21.40;;;14.82;;
22622;SDS011;11478;51.094;7.030;2023-04-30T06:42:34;18.67;;;14.73;;
22622;SDS011;11478;51.094;7.030;2023-04-30T06:45:08;17.65;;;13.57;;
22622;SDS011;11478;51.094;7.030;2023-04-30T06:47:34;18.52;;;14.15;;
22622;SDS011;11478;51.094;7.030;2023-04-30T06:50:03;24.67;;;16.10;;
22622;SDS011;11478;51.094;7.030;2023-04-30T06:52:29;25.92;;;19.55;;
22622;SDS011;11478;51.094;7.030;2023-04-30T06:55:10;29.23;;;19.42;;
22622;SDS011;11478;51.094;7.030;2023-04-30T06:57:36;28.63;;;18.67;;
22622;SDS011;11478;51.094;7.030;2023-04-30T07:02:36;21.00;;;15.27;;
22622;SDS011;11478;51.094;7.030;2023-04-30T07:05:23;17.05;;;13.25;;
22622;SDS011;11478;51.094;7.030;2023-04-30T07:07:52;15.77;;;11.45;;
22622;SDS011;11478;51.094;7.030;2023-04-30T07:10:21;13.00;;;9.82;;
22622;SDS011;11478;51.094;7.030;2023-04-30T07:12:48;14.00;;;10.40;;
22622;SDS011;11478;51.094;7.030;2023-04-30T07:17:59;11.85;;;8.60;;
22622;SDS011;11478;51.094;7.030;2023-04-30T07:20:26;13.60;;;9.60;;
22622;SDS011;11478;51.094;7.030;2023-04-30T07:22:52;13.82;;;10.07;;
22622;SDS011;11478;51.094;7.030;2023-04-30T07:25:22;13.57;;;8.70;;
22622;SDS011;11478;51.094;7.030;2023-04-30T07:27:57;11.98;;;9.57;;
22622;SDS011;11478;51.094;7.030;2023-04-30T07:30:26;14.90;;;10.32;;
22622;SDS011;11478;51.094;7.030;2023-04-30T07:32:54;14.52;;;10.45;;
22622;SDS011;11478;51.094;7.030;2023-04-30T07:35:24;14.55;;;10.70;;
22622;SDS011;11478;51.094;7.030;2023-04-30T07:37:53;12.60;;;9.63;;
22622;SDS011;11478;51.094;7.030;2023-04-30T07:40:20;12.07;;;8.48;;
22622;SDS011;11478;51.094;7.030;2023-04-30T07:43:05;11.93;;;8.75;;
22622;SDS011;11478;51.094;7.030;2023-04-30T07:45:32;11.85;;;8.70;;
22622;SDS011;11478;51.094;7.030;2023-04-30T07:47:58;10.18;;;7.43;;
22622;SDS011;11478;51.094;7.030;2023-04-30T07:50:25;9.35;;;6.93;;
22622;SDS011;11478;51.094;7.030;2023-04-30T07:52:55;7.90;;;6.55;;
22622;SDS011;11478;51.094;7.030;2023-04-30T07:55:24;11.70;;;5.55;;
22622;SDS011;11478;51.094;7.030;2023-04-30T07:57:51;8.27;;;5.63;;
22622;SDS011;11478;51.094;7.030;2023-04-30T08:00:20;6.18;;;5.10;;
22622;SDS011;11478;51.094;7.030;2023-04-30T08:02:51;7.72;;;4.70;;
22622;SDS011;11478;51.094;7.030;2023-04-30T08:05:17;7.78;;;4.22;;
22622;SDS011;11478;51.094;7.030;2023-04-30T08:07:47;5.80;;;3.92;;
22622;SDS011;11478;51.094;7.030;2023-04-30T08:10:13;4.15;;;3.47;;
22622;SDS011;11478;51.094;7.030;2023-04-30T08:12:41;3.60;;;3.28;;
22622;SDS011;11478;51.094;7.030;2023-04-30T08:15:07;8.05;;;3.25;;
22622;SDS011;11478;51.094;7.030;2023-04-30T08:17:41;3.88;;;2.65;;
22622;SDS011;11478;51.094;7.030;2023-04-30T08:20:07;4.15;;;3.28;;
22622;SDS011;11478;51.094;7.030;2023-04-30T08:22:35;4.93;;;2.92;;
22622;SDS011;11478;51.094;7.030;2023-04-30T08:25:01;5.70;;;3.00;;
22622;SDS011;11478;51.094;7.030;2023-04-30T08:27:29;2.83;;;2.33;;
22622;SDS011;11478;51.094;7.030;2023-04-30T08:29:56;3.88;;;2.90;;
22622;SDS011;11478;51.094;7.030;2023-04-30T08:32:22;4.07;;;2.50;;
22622;SDS011;11478;51.094;7.030;2023-04-30T08:34:48;2.92;;;2.45;;
22622;SDS011;11478;51.094;7.030;2023-04-30T08:37:16;3.05;;;2.13;;
22622;SDS011;11478;51.094;7.030;2023-04-30T08:39:42;3.90;;;1.90;;
22622;SDS011;11478;51.094;7.030;2023-04-30T08:42:08;2.78;;;1.63;;
22622;SDS011;11478;51.094;7.030;2023-04-30T08:44:39;3.78;;;1.80;;
22622;SDS011;11478;51.094;7.030;2023-04-30T08:47:09;4.57;;;2.15;;
22622;SDS011;11478;51.094;7.030;2023-04-30T08:49:40;2.90;;;2.05;;
22622;SDS011;11478;51.094;7.030;2023-04-30T08:52:08;3.97;;;2.25;;
22622;SDS011;11478;51.094;7.030;2023-04-30T08:54:35;4.57;;;2.30;;
22622;SDS011;11478;51.094;7.030;2023-04-30T08:57:02;3.40;;;2.35;;
22622;SDS011;11478;51.094;7.030;2023-04-30T08:59:32;3.28;;;2.08;;
22622;SDS011;11478;51.094;7.030;2023-04-30T09:01:59;3.45;;;2.20;;
22622;SDS011;11478;51.094;7.030;2023-04-30T09:06:58;3.28;;;2.60;;
22622;SDS011;11478;51.094;7.030;2023-04-30T09:09:59;5.88;;;2.70;;
22622;SDS011;11478;51.094;7.030;2023-04-30T09:12:23;5.50;;;2.72;;
22622;SDS011;11478;51.094;7.030;2023-04-30T09:15:03;4.97;;;2.25;;
22622;SDS011;11478;51.094;7.030;2023-04-30T09:17:30;2.45;;;2.25;;
22622;SDS011;11478;51.094;7.030;2023-04-30T09:20:07;2.50;;;1.35;;
22622;SDS011;11478;51.094;7.030;2023-04-30T09:22:37;2.08;;;1.60;;
22622;SDS011;11478;51.094;7.030;2023-04-30T09:25:05;3.83;;;2.25;;
22622;SDS011;11478;51.094;7.030;2023-04-30T09:27:32;3.45;;;1.50;;
22622;SDS011;11478;51.094;7.030;2023-04-30T09:30:00;3.25;;;1.27;;
22622;SDS011;11478;51.094;7.030;2023-04-30T09:32:26;3.03;;;1.38;;
22622;SDS011;11478;51.094;7.030;2023-04-30T09:34:53;3.00;;;1.50;;
22622;SDS011;11478;51.094;7.030;2023-04-30T09:37:20;4.10;;;1.70;;
22622;SDS011;11478;51.094;7.030;2023-04-30T09:40:01;1.40;;;1.30;;
22622;SDS011;11478;51.094;7.030;2023-04-30T09:45:39;1.67;;;1.52;;
22622;SDS011;11478;51.094;7.030;2023-04-30T09:48:09;4.72;;;1.50;;
22622;SDS011;11478;51.094;7.030;2023-04-30T09:50:39;1.40;;;1.20;;
22622;SDS011;11478;51.094;7.030;2023-04-30T09:53:09;1.85;;;1.50;;
22622;SDS011;11478;51.094;7.030;2023-04-30T09:55:37;3.10;;;1.73;;
22622;SDS011;11478;51.094;7.030;2023-04-30T09:58:14;2.55;;;1.50;;
22622;SDS011;11478;51.094;7.030;2023-04-30T10:00:42;1.40;;;1.25;;
22622;SDS011;11478;51.094;7.030;2023-04-30T10:03:13;1.60;;;1.30;;
22622;SDS011;11478;51.094;7.030;2023-04-30T10:05:43;1.48;;;1.30;;
22622;SDS011;11478;51.094;7.030;2023-04-30T10:08:19;2.70;;;1.15;;
22622;SDS011;11478;51.094;7.030;2023-04-30T10:11:07;1.98;;;1.30;;
22622;SDS011;11478;51.094;7.030;2023-04-30T10:13:58;1.33;;;1.20;;
22622;SDS011;11478;51.094;7.030;2023-04-30T10:16:31;1.00;;;0.90;;
22622;SDS011;11478;51.094;7.030;2023-04-30T10:19:01;1.30;;;1.02;;
22622;SDS011;11478;51.094;7.030;2023-04-30T10:21:44;1.25;;;1.15;;
22622;SDS011;11478;51.094;7.030;2023-04-30T10:24:17;2.15;;;1.15;;
22622;SDS011;11478;51.094;7.030;2023-04-30T10:29:21;1.13;;;1.02;;
22622;SDS011;11478;51.094;7.030;2023-04-30T10:31:50;1.67;;;1.00;;
22622;SDS011;11478;51.094;7.030;2023-04-30T10:37:10;0.82;;;0.80;;
22622;SDS011;11478;51.094;7.030;2023-04-30T10:39:58;1.50;;;0.80;;
22622;SDS011;11478;51.094;7.030;2023-04-30T10:42:33;1.70;;;0.80;;
22622;SDS011;11478;51.094;7.030;2023-04-30T10:45:00;0.70;;;0.70;;
22622;SDS011;11478;51.094;7.030;2023-04-30T10:47:34;1.13;;;0.80;;
22622;SDS011;11478;51.094;7.030;2023-04-30T10:50:11;1.00;;;0.65;;
22622;SDS011;11478;51.094;7.030;2023-04-30T10:52:38;3.50;;;0.82;;
22622;SDS011;11478;51.094;7.030;2023-04-30T10:55:06;1.35;;;0.88;;
22622;SDS011;11478;51.094;7.030;2023-04-30T10:57:40;1.13;;;0.60;;
22622;SDS011;11478;51.094;7.030;2023-04-30T11:02:39;0.90;;;0.80;;
22622;SDS011;11478;51.094;7.030;2023-04-30T11:05:10;1.88;;;0.68;;
22622;SDS011;11478;51.094;7.030;2023-04-30T11:07:47;0.70;;;0.70;;
22622;SDS011;11478;51.094;7.030;2023-04-30T11:10:18;1.90;;;0.80;;
22622;SDS011;11478;51.094;7.030;2023-04-30T11:12:53;1.48;;;0.85;;
22622;SDS011;11478;51.094;7.030;2023-04-30T11:15:24;2.08;;;0.60;;
22622;SDS011;11478;51.094;7.030;2023-04-30T11:17:58;0.45;;;0.40;;
22622;SDS011;11478;51.094;7.030;2023-04-30T11:20:32;1.85;;;0.50;;
22622;SDS011;11478;51.094;7.030;2023-04-30T11:23:11;0.85;;;0.57;;
22622;SDS011;11478;51.094;7.030;2023-04-30T11:25:43;1.33;;;0.68;;
22622;SDS011;11478;51.094;7.030;2023-04-30T11:28:14;0.77;;;0.40;;
22622;SDS011;11478;51.094;7.030;2023-04-30T11:31:04;0.50;;;0.50;;
22622;SDS011;11478;51.094;7.030;2023-04-30T11:33:30;0.35;;;0.35;;
22622;SDS011;11478;51.094;7.030;2023-04-30T11:36:01;0.68;;;0.68;;
22622;SDS011;11478;51.094;7.030;2023-04-30T11:38:28;2.38;;;0.68;;
22622;SDS011;11478;51.094;7.030;2023-04-30T11:41:02;1.05;;;0.60;;
22622;SDS011;11478;51.094;7.030;2023-04-30T11:43:29;0.70;;;0.60;;
22622;SDS011;11478;51.094;7.030;2023-04-30T11:49:03;1.08;;;0.68;;
22622;SDS011;11478;51.094;7.030;2023-04-30T11:51:35;1.50;;;0.60;;
22622;SDS011;11478;51.094;7.030;2023-04-30T11:54:01;0.55;;;0.50;;
22622;SDS011;11478;51.094;7.030;2023-04-30T11:56:30;0.65;;;0.52;;
22622;SDS011;11478;51.094;7.030;2023-04-30T11:59:09;1.00;;;0.75;;
22622;SDS011;11478;51.094;7.030;2023-04-30T12:01:35;3.10;;;0.80;;
22622;SDS011;11478;51.094;7.030;2023-04-30T12:04:02;0.63;;;0.57;;
22622;SDS011;11478;51.094;7.030;2023-04-30T12:06:29;1.10;;;1.00;;
22622;SDS011;11478;51.094;7.030;2023-04-30T12:09:06;1.40;;;0.80;;
22622;SDS011;11478;51.094;7.030;2023-04-30T12:11:34;1.60;;;0.75;;
22622;SDS011;11478;51.094;7.030;2023-04-30T12:14:10;1.48;;;0.60;;
22622;SDS011;11478;51.094;7.030;2023-04-30T12:16:46;3.33;;;0.85;;
22622;SDS011;11478;51.094;7.030;2023-04-30T12:19:18;0.70;;;0.70;;
22622;SDS011;11478;51.094;7.030;2023-04-30T12:21:49;0.60;;;0.60;;
22622;SDS011;11478;51.094;7.030;2023-04-30T12:24:16;1.25;;;0.88;;
22622;SDS011;11478;51.094;7.030;2023-04-30T12:26:53;1.17;;;0.95;;
22622;SDS011;11478;51.094;7.030;2023-04-30T12:29:20;1.25;;;1.00;;
22622;SDS011;11478;51.094;7.030;2023-04-30T12:31:49;1.13;;;0.90;;
22622;SDS011;11478;51.094;7.030;2023-04-30T12:34:16;1.33;;;0.90;;
22622;SDS011;11478;51.094;7.030;2023-04-30T12:39:16;2.85;;;0.70;;
22622;SDS011;11478;51.094;7.030;2023-04-30T12:41:58;2.22;;;1.02;;
22622;SDS011;11478;51.094;7.030;2023-04-30T12:44:27;1.25;;;0.80;;
22622;SDS011;11478;51.094;7.030;2023-04-30T12:47:09;1.13;;;0.65;;
22622;SDS011;11478;51.094;7.030;2023-04-30T12:49:51;0.70;;;0.68;;
22622;SDS011;11478;51.094;7.030;2023-04-30T12:52:20;1.60;;;1.00;;
22622;SDS011;11478;51.094;7.030;2023-04-30T12:54:48;1.48;;;1.00;;
22622;SDS011;11478;51.094;7.030;2023-04-30T12:57:17;1.63;;;0.80;;
22622;SDS011;11478;51.094;7.030;2023-04-30T12:59:57;1.88;;;0.60;;
22622;SDS011;11478;51.094;7.030;2023-04-30T13:02:25;1.63;;;0.77;;
22622;SDS011;11478;51.094;7.030;2023-04-30T13:04:57;0.90;;;0.70;;
22622;SDS011;11478;51.094;7.030;2023-04-30T13:07:36;0.80;;;0.80;;
22622;SDS011;11478;51.094;7.030;2023-04-30T13:10:05;1.88;;;0.98;;
22622;SDS011;11478;51.094;7.030;2023-04-30T13:12:31;1.67;;;0.82;;
22622;SDS011;11478;51.094;7.030;2023-04-30T13:14:57;1.13;;;0.85;;
22622;SDS011;11478;51.094;7.030;2023-04-30T13:17:23;0.90;;;0.80;;
22622;SDS011;11478;51.094;7.030;2023-04-30T13:19:53;1.30;;;0.75;;
22622;SDS011;11478;51.094;7.030;2023-04-30T13:22:21;1.40;;;1.00;;
22622;SDS011;11478;51.094;7.030;2023-04-30T13:24:52;2.70;;;0.80;;
22622;SDS011;11478;51.094;7.030;2023-04-30T13:27:20;0.90;;;0.77;;
22622;SDS011;11478;51.094;7.030;2023-04-30T13:29:46;0.93;;;0.70;;
22622;SDS011;11478;51.094;7.030;2023-04-30T13:32:14;1.83;;;1.10;;
22622;SDS011;11478;51.094;7.030;2023-04-30T13:34:41;1.13;;;0.60;;
22622;SDS011;11478;51.094;7.030;2023-04-30T13:37:15;1.08;;;0.77;;
22622;SDS011;11478;51.094;7.030;2023-04-30T13:39:43;0.77;;;0.65;;
22622;SDS011;11478;51.094;7.030;2023-04-30T13:42:10;2.20;;;1.00;;
22622;SDS011;11478;51.094;7.030;2023-04-30T13:44:38;0.80;;;0.80;;
22622;SDS011;11478;51.094;7.030;2023-04-30T13:47:12;2.10;;;0.85;;
22622;SDS011;11478;51.094;7.030;2023-04-30T13:49:39;1.40;;;0.82;;
22622;SDS011;11478;51.094;7.030;2023-04-30T13:52:06;0.88;;;0.80;;
22622;SDS011;11478;51.094;7.030;2023-04-30T13:54:32;0.80;;;0.80;;
22622;SDS011;11478;51.094;7.030;2023-04-30T13:59:49;1.67;;;0.95;;
22622;SDS011;11478;51.094;7.030;2023-04-30T14:02:15;0.75;;;0.70;;
22622;SDS011;11478;51.094;7.030;2023-04-30T14:04:43;2.10;;;0.93;;
22622;SDS011;11478;51.094;7.030;2023-04-30T14:07:09;2.17;;;0.93;;
22622;SDS011;11478;51.094;7.030;2023-04-30T14:09:39;1.45;;;0.80;;
22622;SDS011;11478;51.094;7.030;2023-04-30T14:12:08;0.80;;;0.73;;
22622;SDS011;11478;51.094;7.030;2023-04-30T14:14:38;1.25;;;1.00;;
22622;SDS011;11478;51.094;7.030;2023-04-30T14:17:04;0.85;;;0.80;;
22622;SDS011;11478;51.094;7.030;2023-04-30T14:19:33;1.00;;;0.88;;
22622;SDS011;11478;51.094;7.030;2023-04-30T14:21:59;2.60;;;0.70;;
22622;SDS011;11478;51.094;7.030;2023-04-30T14:24:25;0.70;;;0.70;;
22622;SDS011;11478;51.094;7.030;2023-04-30T14:26:52;4.43;;;1.00;;
22622;SDS011;11478;51.094;7.030;2023-04-30T14:29:18;1.23;;;0.80;;
22622;SDS011;11478;51.094;7.030;2023-04-30T14:31:45;1.00;;;0.75;;
22622;SDS011;11478;51.094;7.030;2023-04-30T14:34:11;1.42;;;0.90;;
22622;SDS011;11478;51.094;7.030;2023-04-30T14:36:38;1.10;;;0.90;;
22622;SDS011;11478;51.094;7.030;2023-04-30T14:39:04;1.83;;;1.00;;
22622;SDS011;11478;51.094;7.030;2023-04-30T14:41:34;1.38;;;1.00;;
22622;SDS011;11478;51.094;7.030;2023-04-30T14:44:06;2.17;;;1.02;;
22622;SDS011;11478;51.094;7.030;2023-04-30T14:46:35;1.75;;;0.90;;
22622;SDS011;11478;51.094;7.030;2023-04-30T14:49:06;1.48;;;0.80;;
22622;SDS011;11478;51.094;7.030;2023-04-30T14:51:40;2.20;;;1.00;;
22622;SDS011;11478;51.094;7.030;2023-04-30T14:54:09;1.90;;;0.90;;
22622;SDS011;11478;51.094;7.030;2023-04-30T14:56:38;0.93;;;0.80;;
22622;SDS011;11478;51.094;7.030;2023-04-30T14:59:09;0.68;;;0.68;;
22622;SDS011;11478;51.094;7.030;2023-04-30T15:01:40;1.15;;;0.90;;
22622;SDS011;11478;51.094;7.030;2023-04-30T15:04:07;1.15;;;1.00;;
22622;SDS011;11478;51.094;7.030;2023-04-30T15:06:45;1.33;;;0.85;;
22622;SDS011;11478;51.094;7.030;2023-04-30T15:12:40;1.40;;;0.95;;
22622;SDS011;11478;51.094;7.030;2023-04-30T15:15:19;2.00;;;1.00;;
22622;SDS011;11478;51.094;7.030;2023-04-30T15:17:52;2.47;;;1.25;;
22622;SDS011;11478;51.094;7.030;2023-04-30T15:20:27;3.78;;;1.02;;
22622;SDS011;11478;51.094;7.030;2023-04-30T15:22:53;1.25;;;0.93;;
22622;SDS011;11478;51.094;7.030;2023-04-30T15:25:27;1.33;;;0.88;;
22622;SDS011;11478;51.094;7.030;2023-04-30T15:27:53;1.85;;;1.20;;
22622;SDS011;11478;51.094;7.030;2023-04-30T15:30:24;4.00;;;0.90;;
22622;SDS011;11478;51.094;7.030;2023-04-30T15:32:50;1.95;;;1.00;;
22622;SDS011;11478;51.094;7.030;2023-04-30T15:35:16;1.17;;;0.80;;
22622;SDS011;11478;51.094;7.030;2023-04-30T15:37:42;1.20;;;0.88;;
22622;SDS011;11478;51.094;7.030;2023-04-30T15:40:10;2.97;;;1.27;;
22622;SDS011;11478;51.094;7.030;2023-04-30T15:42:39;1.30;;;0.85;;
22622;SDS011;11478;51.094;7.030;2023-04-30T15:45:27;1.30;;;0.80;;
22622;SDS011;11478;51.094;7.030;2023-04-30T15:48:15;2.67;;;0.95;;
22622;SDS011;11478;51.094;7.030;2023-04-30T15:50:59;1.77;;;0.95;;
22622;SDS011;11478;51.094;7.030;2023-04-30T15:53:27;3.42;;;0.80;;
22622;SDS011;11478;51.094;7.030;2023-04-30T15:55:53;2.88;;;0.88;;
22622;SDS011;11478;51.094;7.030;2023-04-30T15:58:31;6.43;;;1.00;;
22622;SDS011;11478;51.094;7.030;2023-04-30T16:00:57;1.08;;;0.70;;
22622;SDS011;11478;51.094;7.030;2023-04-30T16:03:23;3.20;;;0.93;;
22622;SDS011;11478;51.094;7.030;2023-04-30T16:05:49;2.00;;;1.00;;
22622;SDS011;11478;51.094;7.030;2023-04-30T16:08:16;3.58;;;1.00;;
22622;SDS011;11478;51.094;7.030;2023-04-30T16:13:46;1.67;;;1.10;;
22622;SDS011;11478;51.094;7.030;2023-04-30T16:16:15;1.20;;;0.90;;